sensor_id;sensor_type;location;lat;lon;timestamp;temperature;humidity
19864;DHT22;10094;48.820;9.226;2023-04-06T00:01:55;2.10;99.90
19864;DHT22;10094;48.820;9.226;2023-04-06T00:08:38;1.90;99.90
19864;DHT22;10094;48.820;9.226;2023-04-06T00:15:20;1.80;99.90
19864;DHT22;10094;48.820;9.226;2023-04-06T00:22:03;1.80;99.90
19864;DHT22;10094;48.820;9.226;2023-04-06T00:28:45;1.80;99.90
19864;DHT22;10094;48.820;9.226;2023-04-06T00:35:28;1.70;99.90
19864;DHT22;10094;48.820;9.226;2023-04-06T00:42:11;1.70;99.90
19864;DHT22;10094;48.820;9.226;2023-04-06T00:48:57;1.60;99.90
19864;DHT22;10094;48.820;9.226;2023-04-06T00:55:39;1.50;99.90
19864;DHT22;10094;48.820;9.226;2023-04-06T01:02:23;1.40;99.90
19864;DHT22;10094;48.820;9.226;2023-04-06T01:09:08;1.40;99.90
19864;DHT22;10094;48.820;9.226;2023-04-06T01:15:51;1.50;99.90
19864;DHT22;10094;48.820;9.226;2023-04-06T01:22:41;1.30;99.90
19864;DHT22;10094;48.820;9.226;2023-04-06T01:29:26;1.20;99.90
19864;DHT22;10094;48.820;9.226;2023-04-06T01:36:17;1.20;99.90
19864;DHT22;10094;48.820;9.226;2023-04-06T01:43:03;1.10;99.90
19864;DHT22;10094;48.820;9.226;2023-04-06T01:49:58;1.10;99.90
19864;DHT22;10094;48.820;9.226;2023-04-06T01:56:41;0.90;99.90
19864;DHT22;10094;48.820;9.226;2023-04-06T02:03:38;0.90;99.90
19864;DHT22;10094;48.820;9.226;2023-04-06T02:10:25;1.00;99.90
19864;DHT22;10094;48.820;9.226;2023-04-06T02:17:07;0.90;99.90
19864;DHT22;10094;48.820;9.226;2023-04-06T02:23:49;0.90;99.90
19864;DHT22;10094;48.820;9.226;2023-04-06T02:30:32;0.70;99.90
19864;DHT22;10094;48.820;9.226;2023-04-06T02:37:15;0.80;99.90
19864;DHT22;10094;48.820;9.226;2023-04-06T02:43:57;0.80;99.90
19864;DHT22;10094;48.820;9.226;2023-04-06T02:50:51;0.70;99.90
19864;DHT22;10094;48.820;9.226;2023-04-06T02:57:33;0.60;99.90
19864;DHT22;10094;48.820;9.226;2023-04-06T03:04:16;0.60;99.90
19864;DHT22;10094;48.820;9.226;2023-04-06T03:10:59;0.60;99.90
19864;DHT22;10094;48.820;9.226;2023-04-06T03:17:49;0.70;99.90
19864;DHT22;10094;48.820;9.226;2023-04-06T03:24:52;0.70;99.90
19864;DHT22;10094;48.820;9.226;2023-04-06T03:31:35;0.60;99.90
19864;DHT22;10094;48.820;9.226;2023-04-06T03:38:23;0.50;99.90
19864;DHT22;10094;48.820;9.226;2023-04-06T03:45:06;0.60;99.90
19864;DHT22;10094;48.820;9.226;2023-04-06T03:51:50;0.70;99.90
19864;DHT22;10094;48.820;9.226;2023-04-06T03:58:32;0.80;99.90
19864;DHT22;10094;48.820;9.226;2023-04-06T04:05:15;0.80;99.90
19864;DHT22;10094;48.820;9.226;2023-04-06T04:11:57;0.80;99.90
19864;DHT22;10094;48.820;9.226;2023-04-06T04:18:40;0.80;99.90
19864;DHT22;10094;48.820;9.226;2023-04-06T04:25:23;0.80;99.90
19864;DHT22;10094;48.820;9.226;2023-04-06T04:32:05;0.70;99.90
19864;DHT22;10094;48.820;9.226;2023-04-06T04:38:48;0.70;99.90
19864;DHT22;10094;48.820;9.226;2023-04-06T04:45:31;0.70;99.90
19864;DHT22;10094;48.820;9.226;2023-04-06T04:52:20;0.60;99.90
19864;DHT22;10094;48.820;9.226;2023-04-06T04:59:11;0.50;99.90
19864;DHT22;10094;48.820;9.226;2023-04-06T05:05:57;0.60;99.90
19864;DHT22;10094;48.820;9.226;2023-04-06T05:12:44;0.70;99.90
19864;DHT22;10094;48.820;9.226;2023-04-06T05:19:26;0.90;99.90
19864;DHT22;10094;48.820;9.226;2023-04-06T05:26:09;1.10;99.90
19864;DHT22;10094;48.820;9.226;2023-04-06T05:32:52;1.30;99.90
19864;DHT22;10094;48.820;9.226;2023-04-06T05:39:36;1.50;99.90
19864;DHT22;10094;48.820;9.226;2023-04-06T05:46:19;1.80;99.90
19864;DHT22;10094;48.820;9.226;2023-04-06T05:53:02;2.00;99.90
19864;DHT22;10094;48.820;9.226;2023-04-06T05:59:52;2.20;99.90
19864;DHT22;10094;48.820;9.226;2023-04-06T06:06:37;2.50;99.90
19864;DHT22;10094;48.820;9.226;2023-04-06T06:13:35;6.00;99.90
19864;DHT22;10094;48.820;9.226;2023-04-06T06:20:18;8.90;93.80
19864;DHT22;10094;48.820;9.226;2023-04-06T06:27:02;11.90;81.80
19864;DHT22;10094;48.820;9.226;2023-04-06T06:33:50;12.20;80.70
19864;DHT22;10094;48.820;9.226;2023-04-06T06:40:35;12.90;76.80
19864;DHT22;10094;48.820;9.226;2023-04-06T06:47:18;14.40;75.50
19864;DHT22;10094;48.820;9.226;2023-04-06T06:54:00;15.00;71.10
19864;DHT22;10094;48.820;9.226;2023-04-06T07:00:43;15.00;70.30
19864;DHT22;10094;48.820;9.226;2023-04-06T07:07:26;14.80;69.80
19864;DHT22;10094;48.820;9.226;2023-04-06T07:14:08;15.10;67.90
19864;DHT22;10094;48.820;9.226;2023-04-06T07:20:52;13.90;67.90
19864;DHT22;10094;48.820;9.226;2023-04-06T07:27:34;15.60;66.20
19864;DHT22;10094;48.820;9.226;2023-04-06T07:34:17;15.20;65.50
19864;DHT22;10094;48.820;9.226;2023-04-06T07:41:01;15.00;65.50
19864;DHT22;10094;48.820;9.226;2023-04-06T07:47:46;15.10;65.20
19864;DHT22;10094;48.820;9.226;2023-04-06T07:54:29;17.40;63.70
19864;DHT22;10094;48.820;9.226;2023-04-06T08:01:12;18.10;62.10
19864;DHT22;10094;48.820;9.226;2023-04-06T08:07:54;19.80;60.50
19864;DHT22;10094;48.820;9.226;2023-04-06T08:14:37;19.00;58.90
19864;DHT22;10094;48.820;9.226;2023-04-06T08:21:19;19.00;59.50
19864;DHT22;10094;48.820;9.226;2023-04-06T08:28:02;22.30;58.40
19864;DHT22;10094;48.820;9.226;2023-04-06T08:34:45;23.10;54.50
19864;DHT22;10094;48.820;9.226;2023-04-06T08:41:28;23.50;51.80
19864;DHT22;10094;48.820;9.226;2023-04-06T08:48:11;21.50;50.00
19864;DHT22;10094;48.820;9.226;2023-04-06T08:54:54;23.60;48.70
19864;DHT22;10094;48.820;9.226;2023-04-06T09:01:39;24.40;49.20
19864;DHT22;10094;48.820;9.226;2023-04-06T09:08:23;24.70;46.40
19864;DHT22;10094;48.820;9.226;2023-04-06T09:15:06;25.80;45.80
19864;DHT22;10094;48.820;9.226;2023-04-06T09:22:03;25.70;42.50
19864;DHT22;10094;48.820;9.226;2023-04-06T09:28:53;25.40;40.40
19864;DHT22;10094;48.820;9.226;2023-04-06T09:35:35;25.00;40.80
19864;DHT22;10094;48.820;9.226;2023-04-06T09:42:25;25.80;40.40
19864;DHT22;10094;48.820;9.226;2023-04-06T09:49:09;26.30;39.10
19864;DHT22;10094;48.820;9.226;2023-04-06T09:55:55;24.60;35.20
19864;DHT22;10094;48.820;9.226;2023-04-06T10:09:31;23.70;36.20
19864;DHT22;10094;48.820;9.226;2023-04-06T10:16:18;23.90;36.10
19864;DHT22;10094;48.820;9.226;2023-04-06T10:23:15;24.30;36.20
19864;DHT22;10094;48.820;9.226;2023-04-06T10:30:04;24.20;34.60
19864;DHT22;10094;48.820;9.226;2023-04-06T10:36:47;24.00;33.50
19864;DHT22;10094;48.820;9.226;2023-04-06T10:43:34;23.20;32.80
19864;DHT22;10094;48.820;9.226;2023-04-06T10:50:20;22.00;33.40
19864;DHT22;10094;48.820;9.226;2023-04-06T10:57:03;19.20;34.80
19864;DHT22;10094;48.820;9.226;2023-04-06T11:03:50;16.90;35.40
19864;DHT22;10094;48.820;9.226;2023-04-06T11:10:32;16.60;36.50
19864;DHT22;10094;48.820;9.226;2023-04-06T11:17:15;16.50;36.20
19864;DHT22;10094;48.820;9.226;2023-04-06T11:24:21;16.50;36.50
19864;DHT22;10094;48.820;9.226;2023-04-06T11:31:03;14.80;36.10
19864;DHT22;10094;48.820;9.226;2023-04-06T11:37:46;14.90;35.60
19864;DHT22;10094;48.820;9.226;2023-04-06T11:44:39;15.00;36.90
19864;DHT22;10094;48.820;9.226;2023-04-06T11:51:22;15.20;36.80
19864;DHT22;10094;48.820;9.226;2023-04-06T11:58:09;15.50;37.50
19864;DHT22;10094;48.820;9.226;2023-04-06T12:04:51;15.10;35.80
19864;DHT22;10094;48.820;9.226;2023-04-06T12:11:34;14.90;35.30
19864;DHT22;10094;48.820;9.226;2023-04-06T12:18:16;15.00;35.40
19864;DHT22;10094;48.820;9.226;2023-04-06T12:24:59;14.90;35.60
19864;DHT22;10094;48.820;9.226;2023-04-06T12:31:41;15.20;36.10
19864;DHT22;10094;48.820;9.226;2023-04-06T12:38:26;14.90;35.70
19864;DHT22;10094;48.820;9.226;2023-04-06T12:45:09;14.70;37.20
19864;DHT22;10094;48.820;9.226;2023-04-06T12:51:51;14.70;38.10
19864;DHT22;10094;48.820;9.226;2023-04-06T12:58:34;14.80;37.10
19864;DHT22;10094;48.820;9.226;2023-04-06T13:05:18;15.00;36.90
19864;DHT22;10094;48.820;9.226;2023-04-06T13:12:01;15.10;37.50
19864;DHT22;10094;48.820;9.226;2023-04-06T13:18:44;14.90;37.10
19864;DHT22;10094;48.820;9.226;2023-04-06T13:25:26;15.10;37.80
19864;DHT22;10094;48.820;9.226;2023-04-06T13:32:10;15.20;37.40
19864;DHT22;10094;48.820;9.226;2023-04-06T13:38:52;14.60;37.70
19864;DHT22;10094;48.820;9.226;2023-04-06T13:45:36;15.30;39.00
19864;DHT22;10094;48.820;9.226;2023-04-06T13:52:19;16.10;37.60
19864;DHT22;10094;48.820;9.226;2023-04-06T13:59:03;15.90;37.40
19864;DHT22;10094;48.820;9.226;2023-04-06T14:05:45;15.50;37.00
19864;DHT22;10094;48.820;9.226;2023-04-06T14:12:28;15.30;37.30
19864;DHT22;10094;48.820;9.226;2023-04-06T14:19:12;15.40;36.40
19864;DHT22;10094;48.820;9.226;2023-04-06T14:26:02;15.60;36.70
19864;DHT22;10094;48.820;9.226;2023-04-06T14:32:45;16.00;36.70
19864;DHT22;10094;48.820;9.226;2023-04-06T14:39:28;16.00;37.80
19864;DHT22;10094;48.820;9.226;2023-04-06T14:46:10;15.70;36.40
19864;DHT22;10094;48.820;9.226;2023-04-06T14:52:52;15.40;37.60
19864;DHT22;10094;48.820;9.226;2023-04-06T14:59:35;15.70;37.90
19864;DHT22;10094;48.820;9.226;2023-04-06T15:06:23;15.40;38.20
19864;DHT22;10094;48.820;9.226;2023-04-06T15:13:06;15.00;37.60
19864;DHT22;10094;48.820;9.226;2023-04-06T15:19:49;15.30;38.30
19864;DHT22;10094;48.820;9.226;2023-04-06T15:26:31;15.30;38.10
19864;DHT22;10094;48.820;9.226;2023-04-06T15:33:13;15.00;37.40
19864;DHT22;10094;48.820;9.226;2023-04-06T15:39:56;15.00;38.20
19864;DHT22;10094;48.820;9.226;2023-04-06T15:46:40;14.80;37.70
19864;DHT22;10094;48.820;9.226;2023-04-06T15:53:23;14.70;38.30
19864;DHT22;10094;48.820;9.226;2023-04-06T16:00:06;14.90;38.90
19864;DHT22;10094;48.820;9.226;2023-04-06T16:06:50;14.70;38.60
19864;DHT22;10094;48.820;9.226;2023-04-06T16:13:33;14.50;38.50
19864;DHT22;10094;48.820;9.226;2023-04-06T16:20:16;14.50;39.10
19864;DHT22;10094;48.820;9.226;2023-04-06T16:26:59;14.80;39.50
19864;DHT22;10094;48.820;9.226;2023-04-06T16:33:41;14.50;39.80
19864;DHT22;10094;48.820;9.226;2023-04-06T16:40:24;14.40;39.80
19864;DHT22;10094;48.820;9.226;2023-04-06T16:47:06;14.40;41.20
19864;DHT22;10094;48.820;9.226;2023-04-06T16:53:49;14.20;41.20
19864;DHT22;10094;48.820;9.226;2023-04-06T17:00:32;14.40;42.10
19864;DHT22;10094;48.820;9.226;2023-04-06T17:07:14;14.20;41.60
19864;DHT22;10094;48.820;9.226;2023-04-06T17:13:57;13.90;46.50
19864;DHT22;10094;48.820;9.226;2023-04-06T17:20:39;13.70;49.60
19864;DHT22;10094;48.820;9.226;2023-04-06T17:27:22;13.60;46.40
19864;DHT22;10094;48.820;9.226;2023-04-06T17:34:07;13.40;45.50
19864;DHT22;10094;48.820;9.226;2023-04-06T17:40:51;13.20;45.30
19864;DHT22;10094;48.820;9.226;2023-04-06T17:47:33;13.00;44.60
19864;DHT22;10094;48.820;9.226;2023-04-06T17:54:16;12.90;44.50
19864;DHT22;10094;48.820;9.226;2023-04-06T18:01:02;12.90;44.60
19864;DHT22;10094;48.820;9.226;2023-04-06T18:07:49;12.70;44.60
19864;DHT22;10094;48.820;9.226;2023-04-06T18:14:33;12.60;45.50
19864;DHT22;10094;48.820;9.226;2023-04-06T18:21:16;12.50;46.30
19864;DHT22;10094;48.820;9.226;2023-04-06T18:27:59;12.50;47.30
19864;DHT22;10094;48.820;9.226;2023-04-06T18:34:41;12.50;50.70
19864;DHT22;10094;48.820;9.226;2023-04-06T18:41:24;12.40;51.80
19864;DHT22;10094;48.820;9.226;2023-04-06T18:48:07;12.40;54.10
19864;DHT22;10094;48.820;9.226;2023-04-06T18:54:49;12.40;52.70
19864;DHT22;10094;48.820;9.226;2023-04-06T19:01:32;12.30;59.80
19864;DHT22;10094;48.820;9.226;2023-04-06T19:08:14;12.30;56.70
19864;DHT22;10094;48.820;9.226;2023-04-06T19:14:57;12.30;58.00
19864;DHT22;10094;48.820;9.226;2023-04-06T19:21:40;12.20;60.10
19864;DHT22;10094;48.820;9.226;2023-04-06T19:28:25;12.00;57.10
19864;DHT22;10094;48.820;9.226;2023-04-06T19:35:08;12.00;55.30
19864;DHT22;10094;48.820;9.226;2023-04-06T19:41:50;12.20;55.20
19864;DHT22;10094;48.820;9.226;2023-04-06T19:48:33;12.20;55.50
19864;DHT22;10094;48.820;9.226;2023-04-06T19:55:15;12.20;55.80
19864;DHT22;10094;48.820;9.226;2023-04-06T20:01:58;12.00;54.70
19864;DHT22;10094;48.820;9.226;2023-04-06T20:08:41;12.10;56.80
19864;DHT22;10094;48.820;9.226;2023-04-06T20:15:24;12.10;57.20
19864;DHT22;10094;48.820;9.226;2023-04-06T20:22:06;12.00;58.60
19864;DHT22;10094;48.820;9.226;2023-04-06T20:28:48;11.90;61.10
19864;DHT22;10094;48.820;9.226;2023-04-06T20:35:31;11.70;63.00
19864;DHT22;10094;48.820;9.226;2023-04-06T20:42:15;11.60;65.00
19864;DHT22;10094;48.820;9.226;2023-04-06T20:48:58;11.50;68.40
19864;DHT22;10094;48.820;9.226;2023-04-06T20:55:41;11.40;71.40
19864;DHT22;10094;48.820;9.226;2023-04-06T21:02:24;11.20;74.80
19864;DHT22;10094;48.820;9.226;2023-04-06T21:09:07;11.10;77.00
19864;DHT22;10094;48.820;9.226;2023-04-06T21:15:49;11.00;80.10
19864;DHT22;10094;48.820;9.226;2023-04-06T21:22:33;10.90;83.40
19864;DHT22;10094;48.820;9.226;2023-04-06T21:29:15;10.80;86.20
19864;DHT22;10094;48.820;9.226;2023-04-06T21:35:57;10.80;89.50
19864;DHT22;10094;48.820;9.226;2023-04-06T21:42:40;10.70;93.60
19864;DHT22;10094;48.820;9.226;2023-04-06T21:49:22;10.60;96.60
19864;DHT22;10094;48.820;9.226;2023-04-06T21:56:05;10.50;99.30
19864;DHT22;10094;48.820;9.226;2023-04-06T22:02:48;10.20;99.90
19864;DHT22;10094;48.820;9.226;2023-04-06T22:09:31;9.70;99.90
19864;DHT22;10094;48.820;9.226;2023-04-06T22:16:13;9.50;99.90
19864;DHT22;10094;48.820;9.226;2023-04-06T22:22:56;9.00;99.90
19864;DHT22;10094;48.820;9.226;2023-04-06T22:29:38;8.70;99.90
19864;DHT22;10094;48.820;9.226;2023-04-06T22:36:21;8.70;99.90
19864;DHT22;10094;48.820;9.226;2023-04-06T22:43:03;8.60;99.90
19864;DHT22;10094;48.820;9.226;2023-04-06T22:49:45;8.30;99.90
19864;DHT22;10094;48.820;9.226;2023-04-06T22:56:28;8.30;99.90
19864;DHT22;10094;48.820;9.226;2023-04-06T23:03:10;8.40;99.90
19864;DHT22;10094;48.820;9.226;2023-04-06T23:09:53;8.50;99.90
19864;DHT22;10094;48.820;9.226;2023-04-06T23:16:35;8.40;99.90
19864;DHT22;10094;48.820;9.226;2023-04-06T23:23:18;8.50;99.90
19864;DHT22;10094;48.820;9.226;2023-04-06T23:30:00;8.40;99.90
19864;DHT22;10094;48.820;9.226;2023-04-06T23:36:42;8.40;99.90
19864;DHT22;10094;48.820;9.226;2023-04-06T23:43:25;8.30;99.90
19864;DHT22;10094;48.820;9.226;2023-04-06T23:50:08;8.10;99.90
19864;DHT22;10094;48.820;9.226;2023-04-06T23:56:50;8.00;99.90
